Time;durP1;ratioP1;P1;durP2;ratioP2;P2;SDS_P1;SDS_P2;PMS_P1;PMS_P2;Temp;Humidity;BMP_temperature;BMP_pressure;BME280_temperature;BME280_humidity;BME280_pressure;Samples;Min_cycle;Max_cycle;Signal;HPM_P1;HPM_P2
2023/06/04 00:00:43;;;;;;;6.18;4.18;;;;;;;14.41;100.00;93251.81;5087159;28;20101;-75
2023/06/04 00:03:09;;;;;;;6.47;4.22;;;;;;;14.41;100.00;93246.66;5086666;28;20048;-74
2023/06/04 00:05:36;;;;;;;6.20;4.18;;;;;;;14.21;100.00;93222.03;5087167;28;20074;-74
2023/06/04 00:08:03;;;;;;;5.65;3.72;;;;;;;14.43;100.00;93254.94;5086000;28;20056;-75
2023/06/04 00:10:33;;;;;;;5.53;3.45;;;;;;;14.43;100.00;93252.38;5087013;28;20041;-74
2023/06/04 00:13:00;;;;;;;4.97;3.65;;;;;;;14.35;100.00;93240.59;5086758;28;20443;-74
2023/06/04 00:15:27;;;;;;;6.32;4.00;;;;;;;14.40;100.00;93251.03;5087007;28;20420;-74
2023/06/04 00:17:56;;;;;;;5.00;3.67;;;;;;;14.40;100.00;93252.84;5086732;28;20497;-74
2023/06/04 00:20:23;;;;;;;5.80;3.70;;;;;;;14.40;100.00;93245.88;5086859;28;20500;-74
2023/06/04 00:22:50;;;;;;;6.03;3.65;;;;;;;14.35;100.00;93245.78;5094578;28;20523;-75
2023/06/04 00:25:17;;;;;;;5.70;4.10;;;;;;;14.32;100.00;93242.88;5091024;28;21008;-75
2023/06/04 00:27:45;;;;;;;5.65;3.83;;;;;;;14.29;100.00;93231.19;5090496;28;20048;-75
2023/06/04 00:30:13;;;;;;;5.43;3.53;;;;;;;14.28;100.00;93238.19;5091120;28;20047;-75
2023/06/04 00:32:41;;;;;;;6.28;4.35;;;;;;;14.21;100.00;93237.53;5090630;28;20048;-75
2023/06/04 00:35:09;;;;;;;6.88;4.20;;;;;;;14.13;100.00;93230.16;5089857;28;20488;-76
2023/06/04 00:37:36;;;;;;;7.35;3.83;;;;;;;14.03;100.00;93218.63;5090236;28;20128;-75
2023/06/04 00:40:03;;;;;;;5.85;3.75;;;;;;;14.13;100.00;93230.16;5090720;28;20077;-75
2023/06/04 00:42:30;;;;;;;5.32;3.60;;;;;;;14.07;100.00;93237.00;5090401;28;20125;-75
2023/06/04 00:44:59;;;;;;;5.80;3.90;;;;;;;14.01;100.00;93222.44;5090530;28;20579;-75
2023/06/04 00:47:26;;;;;;;6.85;3.58;;;;;;;13.96;100.00;93220.56;5090180;28;20051;-75
2023/06/04 00:49:57;;;;;;;6.22;3.58;;;;;;;14.00;100.00;93226.03;5090143;28;20062;-75
2023/06/04 00:52:25;;;;;;;5.53;4.18;;;;;;;14.00;100.00;93228.63;5089537;28;20911;-75
2023/06/04 00:54:54;;;;;;;4.90;3.67;;;;;;;13.91;100.00;93235.94;5090192;28;20155;-75
2023/06/04 00:57:21;;;;;;;6.30;3.60;;;;;;;13.86;100.00;93230.69;5089933;28;20556;-75
2023/06/04 00:59:49;;;;;;;4.90;3.40;;;;;;;13.84;100.00;93220.59;5089697;28;20044;-74
2023/06/04 01:02:20;;;;;;;7.22;3.42;;;;;;;13.80;100.00;93227.22;5089902;28;20507;-75
2023/06/04 01:04:54;;;;;;;5.35;3.30;;;;;;;13.72;100.00;93223.22;5089693;28;20043;-75
2023/06/04 01:07:23;;;;;;;5.50;3.20;;;;;;;13.71;100.00;93229.38;5089982;28;20048;-75
2023/06/04 01:09:50;;;;;;;5.30;3.33;;;;;;;13.64;100.00;93223.56;5089724;28;20044;-75
2023/06/04 01:12:17;;;;;;;5.25;3.60;;;;;;;13.58;100.00;93224.47;5089886;28;20700;-75
2023/06/04 01:14:44;;;;;;;4.85;3.60;;;;;;;13.55;100.00;93219.75;5089455;28;20048;-75
2023/06/04 01:17:17;;;;;;;6.28;3.45;;;;;;;13.40;100.00;93207.31;5089595;28;20052;-74
2023/06/04 01:20:19;;;;;;;5.05;3.33;;;;;;;13.49;100.00;93227.41;5089315;28;20061;-74
2023/06/04 01:22:59;;;;;;;5.55;3.08;;;;;;;13.40;100.00;93227.94;5098154;28;20369;-75
2023/06/04 01:25:32;;;;;;;5.70;3.78;;;;;;;13.45;100.00;93223.69;5089216;28;20044;-75
2023/06/04 01:28:00;;;;;;;5.47;3.80;;;;;;;13.44;100.00;93222.13;5088945;28;20059;-75
2023/06/04 01:30:30;;;;;;;5.25;3.08;;;;;;;13.51;100.00;93223.81;5089786;28;20051;-75
2023/06/04 01:32:57;;;;;;;6.78;3.78;;;;;;;13.46;100.00;93220.13;5088947;28;20094;-75
2023/06/04 01:35:27;;;;;;;5.47;3.67;;;;;;;13.41;100.00;93232.09;5088534;28;20477;-74
2023/06/04 01:37:54;;;;;;;4.55;3.20;;;;;;;13.40;100.00;93236.47;5089368;28;20048;-75
2023/06/04 01:40:21;;;;;;;5.03;3.15;;;;;;;13.28;100.00;93233.13;5089468;28;20063;-75
2023/06/04 01:42:48;;;;;;;5.47;3.97;;;;;;;13.27;100.00;93242.66;5089063;28;20521;-75
2023/06/04 01:45:14;;;;;;;5.13;3.40;;;;;;;13.24;100.00;93235.34;5089098;28;20490;-75
2023/06/04 01:47:41;;;;;;;5.18;3.42;;;;;;;13.26;100.00;93241.09;5089145;28;20653;-74
2023/06/04 01:50:09;;;;;;;6.15;3.63;;;;;;;13.24;100.00;93245.66;5088768;28;20052;-75
2023/06/04 01:52:38;;;;;;;5.32;3.78;;;;;;;13.25;100.00;93242.09;5088680;28;20036;-75
2023/06/04 01:55:05;;;;;;;5.72;4.07;;;;;;;13.10;100.00;93221.91;5088547;28;20833;-74
2023/06/04 01:57:32;;;;;;;5.03;3.70;;;;;;;13.12;100.00;93226.84;5088968;28;20416;-75
2023/06/04 01:59:58;;;;;;;6.47;4.60;;;;;;;13.12;100.00;93229.41;5088352;28;20056;-75
2023/06/04 02:02:25;;;;;;;6.50;4.07;;;;;;;13.15;100.00;93239.28;5089158;28;20070;-75
2023/06/04 02:04:52;;;;;;;5.22;3.72;;;;;;;13.17;100.00;93237.25;5087945;28;20579;-74
2023/06/04 02:07:21;;;;;;;6.65;4.78;;;;;;;13.14;100.00;93237.72;5088479;28;20499;-74
2023/06/04 02:09:49;;;;;;;6.90;4.85;;;;;;;13.19;100.00;93235.25;5088178;28;20055;-75
2023/06/04 02:12:16;;;;;;;6.68;3.70;;;;;;;13.20;100.00;93240.19;5088764;28;20052;-75
2023/06/04 02:14:45;;;;;;;6.65;4.38;;;;;;;13.20;100.00;93245.34;5088576;28;20067;-75
2023/06/04 02:17:12;;;;;;;6.95;4.35;;;;;;;13.21;100.00;93251.28;5088261;28;20135;-74
2023/06/04 02:19:39;;;;;;;6.05;4.15;;;;;;;13.23;100.00;93254.41;5087745;28;20048;-74
2023/06/04 02:22:06;;;;;;;5.70;3.80;;;;;;;13.14;100.00;93248.03;5074343;28;20040;-74
2023/06/04 02:24:33;;;;;;;5.80;4.38;;;;;;;13.22;100.00;93252.84;5068016;28;20044;-74
2023/06/04 02:27:01;;;;;;;6.45;4.78;;;;;;;13.23;100.00;93257.78;5076035;28;20093;-74
2023/06/04 02:32:12;;;;;;;6.70;4.75;;;;;;;13.19;100.00;93259.25;5068034;28;20503;-74
2023/06/04 02:34:39;;;;;;;6.13;4.20;;;;;;;13.16;100.00;93256.34;5069094;28;20094;-74
2023/06/04 02:37:07;;;;;;;5.93;3.90;;;;;;;13.25;100.00;93262.72;5088075;28;20388;-74
2023/06/04 02:39:34;;;;;;;5.80;4.05;;;;;;;13.27;100.00;93268.44;5088402;28;20044;-75
2023/06/04 02:42:03;;;;;;;7.68;4.43;;;;;;;13.12;100.00;93250.84;5087845;28;20102;-75
2023/06/04 02:44:30;;;;;;;6.05;4.18;;;;;;;13.30;100.00;93273.16;5088327;28;20048;-75
2023/06/04 02:46:57;;;;;;;7.22;4.40;;;;;;;13.32;100.00;93276.28;5087499;28;20047;-75
2023/06/04 02:49:24;;;;;;;5.43;3.60;;;;;;;13.33;100.00;93279.69;5087600;28;20516;-75
2023/06/04 02:51:50;;;;;;;7.43;4.00;;;;;;;13.41;100.00;93273.38;5087814;28;20051;-75
2023/06/04 02:54:17;;;;;;;6.68;3.95;;;;;;;13.42;100.00;93283.47;5088315;28;20051;-74
2023/06/04 02:56:44;;;;;;;6.22;3.83;;;;;;;13.45;100.00;93287.41;5087311;28;20060;-75
2023/06/04 02:59:13;;;;;;;6.97;4.45;;;;;;;13.49;100.00;93283.38;5088038;28;20044;-74
2023/06/04 03:01:40;;;;;;;8.30;4.60;;;;;;;13.51;100.00;93286.53;5087248;28;20047;-75
2023/06/04 03:04:09;;;;;;;8.15;5.20;;;;;;;13.53;100.00;93281.13;5087753;28;20125;-74
2023/06/04 03:06:38;;;;;;;11.20;5.28;;;;;;;13.59;100.00;93282.81;5087535;28;20044;-75
2023/06/04 03:09:04;;;;;;;9.95;5.30;;;;;;;13.65;100.00;93286.31;5087562;28;20837;-77
2023/06/04 03:11:31;;;;;;;14.20;6.95;;;;;;;13.71;100.00;93280.22;5087505;28;20052;-76
2023/06/04 03:13:58;;;;;;;11.15;6.75;;;;;;;13.77;100.00;93279.31;5087410;28;20101;-75
2023/06/04 03:16:26;;;;;;;11.32;5.90;;;;;;;13.85;100.00;93278.94;5087059;28;20093;-75
2023/06/04 03:18:53;;;;;;;11.05;6.05;;;;;;;13.87;100.00;93276.94;5087656;28;20093;-75
2023/06/04 03:21:20;;;;;;;10.48;6.05;;;;;;;13.90;100.00;93284.22;5087466;28;20097;-75
2023/06/04 03:23:47;;;;;;;14.07;7.05;;;;;;;13.90;100.00;93286.78;5096530;28;20089;-75
2023/06/04 03:26:13;;;;;;;11.90;6.68;;;;;;;13.90;100.00;93289.38;5087082;28;20036;-75
2023/06/04 03:28:41;;;;;;;11.10;6.30;;;;;;;14.00;100.00;93293.19;5086775;28;20052;-75
2023/06/04 03:31:08;;;;;;;12.63;6.80;;;;;;;14.00;100.00;93288.81;5091729;28;20096;-76
2023/06/04 03:33:36;;;;;;;15.50;7.50;;;;;;;14.01;100.00;93287.81;5087563;28;20443;-76
2023/06/04 03:36:02;;;;;;;13.43;6.80;;;;;;;14.06;100.00;93294.09;5086799;28;20051;-75
2023/06/04 03:38:29;;;;;;;12.02;6.25;;;;;;;14.09;100.00;93296.19;5086984;28;20052;-75
2023/06/04 03:40:56;;;;;;;9.70;5.43;;;;;;;14.08;100.00;93290.25;5086689;28;20085;-76
2023/06/04 03:43:23;;;;;;;14.75;6.90;;;;;;;14.15;100.00;93296.06;5093379;28;20063;-76
2023/06/04 03:45:50;;;;;;;11.50;6.32;;;;;;;14.14;100.00;93298.88;5086427;28;20484;-75
2023/06/04 03:48:16;;;;;;;13.73;6.93;;;;;;;14.21;100.00;93303.91;5087008;28;20044;-76
2023/06/04 03:50:45;;;;;;;13.23;6.88;;;;;;;14.23;100.00;93305.25;5087151;28;20048;-75
2023/06/04 03:53:12;;;;;;;11.13;5.72;;;;;;;14.24;100.00;93308.63;5086758;28;20048;-75
2023/06/04 03:55:39;;;;;;;11.60;5.57;;;;;;;14.26;100.00;93309.19;5086832;28;20044;-75
2023/06/04 03:58:09;;;;;;;14.63;7.55;;;;;;;14.35;100.00;93312.19;5087587;28;21116;-74
2023/06/04 04:00:36;;;;;;;12.73;5.93;;;;;;;14.35;100.00;93307.78;5090825;28;20044;-74
2023/06/04 04:03:02;;;;;;;10.10;6.25;;;;;;;14.45;100.00;93311.59;5091252;28;21207;-75
2023/06/04 04:05:29;;;;;;;11.05;5.80;;;;;;;14.40;100.00;93310.47;5091057;28;20507;-74
2023/06/04 04:07:57;;;;;;;9.68;5.93;;;;;;;14.43;100.00;93317.78;5091399;28;20055;-74
2023/06/04 04:10:24;;;;;;;13.82;7.15;;;;;;;14.48;100.00;93324.06;5090986;28;20820;-74
2023/06/04 04:12:54;;;;;;;13.45;7.55;;;;;;;14.51;100.00;93315.81;5088605;28;20048;-74
2023/06/04 04:15:21;;;;;;;11.10;7.00;;;;;;;14.56;100.00;93321.09;5070617;28;20572;-75
2023/06/04 04:17:48;;;;;;;12.15;6.30;;;;;;;14.62;100.00;93327.91;5070537;28;20045;-75
2023/06/04 04:20:16;;;;;;;11.32;6.80;;;;;;;14.68;100.00;93334.75;5070727;28;20049;-75
2023/06/04 04:22:43;;;;;;;12.27;7.22;;;;;;;14.71;100.00;93336.09;5070576;28;20048;-76
2023/06/04 04:25:11;;;;;;;10.52;7.07;;;;;;;14.67;100.00;93320.25;5071050;28;20578;-76
2023/06/04 04:27:41;;;;;;;11.95;7.20;;;;;;;14.82;100.00;93334.50;5070803;28;20071;-76
2023/06/04 04:30:09;;;;;;;7.85;4.72;;;;;;;14.62;100.00;93329.72;5070229;28;20053;-77
2023/06/04 04:32:38;;;;;;;8.10;4.72;;;;;;;14.76;100.00;93333.63;5070615;28;20493;-77
2023/06/04 04:35:07;;;;;;;9.43;5.32;;;;;;;14.83;100.00;93336.84;5070711;28;20048;-77
2023/06/04 04:37:38;;;;;;;8.13;5.55;;;;;;;14.93;100.00;93341.41;5070517;28;20052;-76
2023/06/04 04:40:10;;;;;;;12.43;6.80;;;;;;;15.01;100.00;93339.47;5070344;28;20501;-75
2023/06/04 04:42:38;;;;;;;7.80;5.15;;;;;;;15.11;100.00;93339.63;5070470;28;20055;-76
2023/06/04 04:45:05;;;;;;;7.47;4.63;;;;;;;15.18;100.00;93335.06;5070083;28;20098;-77
2023/06/04 04:47:32;;;;;;;4.95;2.85;;;;;;;15.20;100.00;93337.44;5083417;28;20059;-76
2023/06/04 04:49:59;;;;;;;6.22;4.10;;;;;;;15.28;100.00;93342.19;5068599;28;20093;-75
2023/06/04 04:52:26;;;;;;;5.72;3.40;;;;;;;15.33;100.00;93338.94;5070421;28;20052;-77
2023/06/04 04:54:55;;;;;;;5.85;3.25;;;;;;;15.29;100.00;93346.38;5070114;28;20051;-76
2023/06/04 04:57:22;;;;;;;5.88;3.33;;;;;;;15.18;100.00;93342.06;5070061;28;20127;-77
2023/06/04 04:59:50;;;;;;;4.47;3.15;;;;;;;15.19;100.00;93333.28;5069383;28;20492;-77
2023/06/04 05:02:17;;;;;;;6.22;3.63;;;;;;;14.89;100.00;93345.47;5069983;28;20044;-77
2023/06/04 05:04:44;;;;;;;6.50;3.72;;;;;;;14.93;100.00;93338.81;5069893;28;20810;-76
2023/06/04 05:07:11;;;;;;;5.22;3.60;;;;;;;15.00;100.00;93343.06;5070130;28;20051;-76
2023/06/04 05:09:38;;;;;;;5.88;4.28;;;;;;;15.02;100.00;93351.38;5069174;28;20505;-76
2023/06/04 05:12:05;;;;;;;6.22;4.22;;;;;;;14.95;100.00;93348.94;5069454;28;20528;-77
2023/06/04 05:14:32;;;;;;;6.70;4.45;;;;;;;15.01;100.00;93345.44;5069649;28;20094;-76
2023/06/04 05:17:00;;;;;;;6.03;4.30;;;;;;;14.91;100.00;93345.25;5070064;28;20149;-76
2023/06/04 05:19:27;;;;;;;6.82;4.13;;;;;;;15.04;100.00;93347.53;5069640;28;20044;-77
2023/06/04 05:21:54;;;;;;;6.75;4.82;;;;;;;15.07;100.00;93343.69;5069856;28;20048;-76
2023/06/04 05:24:21;;;;;;;6.47;4.38;;;;;;;14.78;100.00;93354.06;5069424;28;20048;-76
2023/06/04 05:26:48;;;;;;;6.40;4.60;;;;;;;14.83;100.00;93347.19;5069291;28;20090;-76
2023/06/04 05:29:15;;;;;;;5.45;4.60;;;;;;;15.00;100.00;93346.41;5069496;28;20049;-76
2023/06/04 05:31:45;;;;;;;7.57;4.43;;;;;;;15.12;100.00;93348.94;5069271;28;20094;-75
2023/06/04 05:34:16;;;;;;;6.03;4.63;;;;;;;15.19;100.00;93361.75;5069629;28;20044;-75
2023/06/04 05:36:43;;;;;;;7.45;5.20;;;;;;;14.99;100.00;93359.59;5069266;28;20519;-76
2023/06/04 05:39:10;;;;;;;6.93;4.75;;;;;;;14.79;100.00;93351.25;5069294;28;20041;-76
2023/06/04 05:41:37;;;;;;;6.13;4.05;;;;;;;14.86;100.00;93352.91;5069315;28;20044;-75
2023/06/04 05:44:05;;;;;;;6.68;4.68;;;;;;;14.84;100.00;93353.16;5069066;28;20656;-75
2023/06/04 05:46:32;;;;;;;7.32;4.63;;;;;;;14.99;100.00;93355.19;5079056;28;20105;-75
2023/06/04 05:48:59;;;;;;;7.63;4.78;;;;;;;14.85;100.00;93354.72;5072685;28;20048;-75
2023/06/04 05:51:27;;;;;;;6.60;5.22;;;;;;;15.01;100.00;93360.16;5068533;28;20513;-76
2023/06/04 05:53:56;;;;;;;7.50;5.50;;;;;;;15.04;100.00;93367.47;5069170;28;20044;-76
2023/06/04 05:56:22;;;;;;;6.47;4.72;;;;;;;15.25;100.00;93370.34;5068602;28;20090;-76
2023/06/04 05:58:52;;;;;;;7.57;5.32;;;;;;;15.23;100.00;93361.03;5068829;28;20048;-76
2023/06/04 06:01:19;;;;;;;8.57;6.28;;;;;;;15.41;100.00;93374.00;5068882;28;20052;-76
2023/06/04 06:03:46;;;;;;;8.10;5.30;;;;;;;15.66;100.00;93373.59;5068924;28;20059;-76
2023/06/04 06:06:13;;;;;;;7.97;6.65;;;;;;;15.82;100.00;93372.00;5068893;28;20053;-76
2023/06/04 06:08:41;;;;;;;7.85;6.28;;;;;;;16.02;100.00;93381.09;5068895;28;20451;-76
2023/06/04 06:11:08;;;;;;;8.98;6.03;;;;;;;16.05;100.00;93375.44;5067944;28;20539;-76
2023/06/04 06:13:35;;;;;;;7.70;6.05;;;;;;;15.98;100.00;93356.69;5069064;28;20079;-76
2023/06/04 06:16:02;;;;;;;7.88;5.78;;;;;;;16.07;100.00;93398.50;5068835;28;20431;-76
2023/06/04 06:18:29;;;;;;;7.47;5.30;;;;;;;15.98;100.00;93398.91;5068279;28;20105;-75
2023/06/04 06:20:55;;;;;;;7.38;5.15;;;;;;;16.16;100.00;93399.69;5067296;28;20055;-76
2023/06/04 06:23:23;;;;;;;8.88;5.13;;;;;;;16.03;100.00;93405.97;5068876;28;20056;-75
2023/06/04 06:25:52;;;;;;;9.15;5.28;;;;;;;15.75;100.00;93399.88;5067908;28;20466;-76
2023/06/04 06:28:19;;;;;;;7.70;5.47;;;;;;;15.95;100.00;93406.38;5068849;28;20113;-76
2023/06/04 06:30:46;;;;;;;7.22;5.32;;;;;;;15.93;100.00;93404.03;5068491;28;20060;-76
2023/06/04 06:33:16;;;;;;;7.57;5.32;;;;;;;15.59;100.00;93378.13;5068224;28;20052;-76
2023/06/04 06:35:46;;;;;;;7.95;5.30;;;;;;;15.87;100.00;93404.94;5068452;28;20053;-75
2023/06/04 06:38:12;;;;;;;9.35;6.30;;;;;;;16.09;100.00;93412.81;5068207;28;20444;-75
2023/06/04 06:40:39;;;;;;;7.63;5.03;;;;;;;16.17;100.00;93409.78;5067867;28;20044;-75
2023/06/04 06:43:07;;;;;;;7.13;5.30;;;;;;;16.26;100.00;93404.19;5088086;28;20055;-75
2023/06/04 06:45:34;;;;;;;8.07;6.22;;;;;;;16.32;100.00;93415.41;5088241;28;20078;-76
2023/06/04 06:48:01;;;;;;;9.02;5.55;;;;;;;16.43;100.00;93417.91;5088568;28;20050;-75
2023/06/04 06:50:28;;;;;;;7.30;5.47;;;;;;;16.60;100.00;93421.44;5088108;28;20051;-76
2023/06/04 06:52:54;;;;;;;9.02;5.25;;;;;;;16.85;100.00;93420.94;5088448;28;20043;-76
2023/06/04 06:55:21;;;;;;;8.38;5.82;;;;;;;17.03;100.00;93416.50;5087828;28;20044;-76
2023/06/04 06:57:48;;;;;;;8.02;5.53;;;;;;;17.26;100.00;93425.78;5086063;28;20048;-76
2023/06/04 07:00:17;;;;;;;8.43;5.82;;;;;;;17.44;100.00;93431.66;5086904;28;20052;-76
2023/06/04 07:02:44;;;;;;;8.43;5.32;;;;;;;17.57;100.00;93431.25;5076105;28;20419;-76
2023/06/04 07:05:11;;;;;;;10.07;6.35;;;;;;;17.68;100.00;93445.09;5088152;28;20044;-76
2023/06/04 07:07:38;;;;;;;8.18;5.35;;;;;;;17.48;100.00;93449.13;5087973;28;20048;-76
2023/06/04 07:10:06;;;;;;;8.18;5.25;;;;;;;17.62;100.00;93456.47;5087401;28;20429;-76
2023/06/04 07:12:32;;;;;;;6.72;5.40;;;;;;;17.44;100.00;93452.44;5088103;28;20420;-76
2023/06/04 07:14:59;;;;;;;6.95;5.18;;;;;;;17.22;100.00;93443.66;5087658;28;21371;-76
2023/06/04 07:17:27;;;;;;;6.55;4.97;;;;;;;17.08;100.00;93453.66;5087794;28;20051;-76
2023/06/04 07:19:54;;;;;;;9.85;6.60;;;;;;;17.00;100.00;93456.66;5087791;28;20052;-76
2023/06/04 07:22:21;;;;;;;7.70;5.30;;;;;;;17.15;100.00;93450.88;5087861;28;20048;-76
2023/06/04 07:24:48;;;;;;;7.85;5.97;;;;;;;17.40;100.00;93462.53;5086516;28;20074;-76
2023/06/04 07:27:15;;;;;;;7.28;4.53;;;;;;;17.38;100.00;93469.78;5087751;28;20055;-77
2023/06/04 07:29:45;;;;;;;6.60;4.65;;;;;;;17.35;100.00;93465.06;5087176;28;20058;-76
2023/06/04 07:32:12;;;;;;;10.35;4.97;;;;;;;17.62;100.00;93470.25;5087197;28;20040;-76
2023/06/04 07:34:40;;;;;;;7.85;5.07;;;;;;;17.90;100.00;93472.81;5087164;28;20048;-76
2023/06/04 07:37:09;;;;;;;6.63;5.10;;;;;;;18.21;100.00;93473.06;5086938;28;20041;-76
2023/06/04 07:39:36;;;;;;;6.32;4.18;;;;;;;18.32;100.00;93480.94;5087548;28;20128;-76
2023/06/04 07:42:03;;;;;;;5.68;4.85;;;;;;;18.53;100.00;93481.81;5087635;28;20059;-76
2023/06/04 07:44:29;;;;;;;7.47;5.18;;;;;;;18.83;100.00;93473.38;5086813;28;20043;-76
2023/06/04 07:46:56;;;;;;;7.60;5.45;;;;;;;19.18;100.00;93472.97;5087269;28;20048;-76
2023/06/04 07:49:23;;;;;;;7.05;5.40;;;;;;;19.44;100.00;93479.03;5074326;28;20047;-76
2023/06/04 07:51:51;;;;;;;7.82;5.45;;;;;;;19.20;100.00;93456.06;5086861;28;20048;-76
2023/06/04 07:54:18;;;;;;;8.90;5.60;;;;;;;19.73;100.00;93488.19;5087671;28;20040;-76
2023/06/04 07:56:45;;;;;;;8.45;5.60;;;;;;;19.84;100.00;93475.91;5086931;28;20056;-76
2023/06/04 07:59:11;;;;;;;8.02;4.88;;;;;;;19.96;100.00;93489.53;5087455;28;20458;-76
2023/06/04 08:01:38;;;;;;;7.05;4.90;;;;;;;20.23;100.00;93496.25;5087268;28;20044;-76
2023/06/04 08:04:05;;;;;;;7.65;5.00;;;;;;;20.38;100.00;93490.25;5087301;28;20067;-76
2023/06/04 08:06:33;;;;;;;6.68;4.72;;;;;;;20.13;100.00;93483.22;5086430;28;20052;-76
2023/06/04 08:09:01;;;;;;;8.88;5.60;;;;;;;20.43;100.00;93495.44;5086826;28;20040;-76
2023/06/04 08:11:27;;;;;;;6.18;4.78;;;;;;;20.41;100.00;93496.78;5086886;28;20059;-76
2023/06/04 08:13:54;;;;;;;7.72;5.55;;;;;;;20.43;100.00;93498.06;5086828;28;20044;-77
2023/06/04 08:16:21;;;;;;;8.50;5.30;;;;;;;20.26;100.00;93498.34;5086887;28;20044;-76
2023/06/04 08:18:48;;;;;;;8.32;5.90;;;;;;;20.25;100.00;93496.00;5086680;28;20048;-76
2023/06/04 08:21:16;;;;;;;8.20;5.82;;;;;;;20.02;100.00;93496.31;5086391;28;20117;-75
2023/06/04 08:23:43;;;;;;;7.40;5.30;;;;;;;19.73;100.00;93501.97;5087210;28;20056;-74
2023/06/04 08:26:11;;;;;;;9.27;6.10;;;;;;;19.87;100.00;93504.09;5086780;28;20048;-74
2023/06/04 08:28:38;;;;;;;7.32;5.70;;;;;;;19.45;100.00;93498.81;5087159;28;20056;-74
2023/06/04 08:31:05;;;;;;;8.13;5.43;;;;;;;19.52;100.00;93503.00;5086825;28;20052;-74
2023/06/04 08:33:32;;;;;;;8.52;5.50;;;;;;;19.68;100.00;93498.59;5087203;28;20040;-74
2023/06/04 08:35:59;;;;;;;7.90;5.53;;;;;;;19.73;100.00;93499.38;5086811;28;20040;-74
2023/06/04 08:38:26;;;;;;;8.88;5.65;;;;;;;20.13;100.00;93494.47;5087000;28;20711;-74
2023/06/04 08:40:53;;;;;;;8.73;6.03;;;;;;;20.02;100.00;93500.72;5086050;28;20047;-74
2023/06/04 08:43:22;;;;;;;15.35;7.63;;;;;;;20.34;100.00;93497.03;5086860;28;20040;-74
2023/06/04 08:45:51;;;;;;;9.23;6.75;;;;;;;20.03;100.00;93505.69;5089432;28;20523;-74
2023/06/04 08:48:21;;;;;;;7.53;5.88;;;;;;;20.34;100.00;93494.44;5090704;28;20126;-74
2023/06/04 08:50:50;;;;;;;9.48;5.97;;;;;;;20.69;100.00;93503.22;5090094;28;20110;-74
2023/06/04 08:53:17;;;;;;;9.98;6.38;;;;;;;20.78;100.00;93505.31;5090160;28;20055;-74
2023/06/04 08:55:44;;;;;;;10.50;5.75;;;;;;;20.98;100.00;93514.13;5090243;28;20098;-74
2023/06/04 08:58:12;;;;;;;9.75;6.13;;;;;;;20.66;100.00;93516.03;5090385;28;20505;-74
2023/06/04 09:00:40;;;;;;;7.28;5.45;;;;;;;20.18;100.00;93503.31;5090294;28;20048;-74
2023/06/04 09:03:08;;;;;;;8.15;6.07;;;;;;;20.39;100.00;93515.31;5090178;28;20093;-74
2023/06/04 09:05:37;;;;;;;7.57;4.80;;;;;;;20.45;100.00;93513.44;5089344;28;20040;-74
2023/06/04 09:08:07;;;;;;;8.48;5.57;;;;;;;20.79;100.00;93509.47;5090290;28;20098;-73
2023/06/04 09:10:37;;;;;;;7.22;4.72;;;;;;;20.82;100.00;93511.53;5090183;28;20109;-74
2023/06/04 09:13:07;;;;;;;9.82;5.40;;;;;;;21.04;100.00;93511.22;5090085;28;20044;-75
2023/06/04 09:15:34;;;;;;;10.20;6.78;;;;;;;20.74;100.00;93509.47;5089780;28;20048;-75
2023/06/04 09:18:03;;;;;;;10.98;6.47;;;;;;;21.14;100.00;93509.59;5089560;28;20075;-74
2023/06/04 09:20:30;;;;;;;9.32;5.55;;;;;;;21.21;100.00;93510.13;5089364;28;20054;-75
2023/06/04 09:22:56;;;;;;;9.73;6.00;;;;;;;20.54;100.00;93504.06;5089455;28;20504;-75
2023/06/04 09:25:25;;;;;;;8.23;4.65;;;;;;;20.70;100.00;93498.78;5090133;28;20044;-74
2023/06/04 09:27:53;;;;;;;11.07;5.85;;;;;;;20.78;100.00;93507.91;5090128;28;20149;-74
2023/06/04 09:30:19;;;;;;;8.57;4.68;;;;;;;20.47;100.00;93505.38;5090074;28;20533;-75
2023/06/04 09:32:46;;;;;;;12.93;6.95;;;;;;;20.00;100.00;93500.97;5089356;28;20110;-75
2023/06/04 09:35:16;;;;;;;14.00;7.72;;;;;;;20.52;100.00;93513.19;5089704;28;20089;-74
2023/06/04 09:37:52;;;;;;;8.23;5.45;;;;;;;20.72;100.00;93507.13;5089139;28;20071;-74
2023/06/04 09:40:19;;;;;;;8.32;5.10;;;;;;;21.12;100.00;93509.91;5089383;28;20044;-74
2023/06/04 09:42:49;;;;;;;7.40;4.63;;;;;;;21.45;100.00;93510.25;5089384;28;20416;-74
2023/06/04 09:45:27;;;;;;;7.85;4.93;;;;;;;21.68;100.00;93515.88;5089275;28;20052;-74
2023/06/04 09:47:54;;;;;;;7.55;4.68;;;;;;;21.98;100.00;93513.34;5089432;28;20048;-74
2023/06/04 09:50:28;;;;;;;6.38;4.53;;;;;;;22.22;99.52;93502.16;5089323;28;20394;-75
2023/06/04 09:52:55;;;;;;;7.47;4.18;;;;;;;22.61;97.86;93518.81;5089064;28;20044;-74
2023/06/04 09:55:23;;;;;;;6.88;4.65;;;;;;;22.81;99.00;93513.38;5089126;28;20048;-74
2023/06/04 09:57:50;;;;;;;7.38;4.78;;;;;;;23.10;100.00;93506.50;5089303;28;20059;-74
2023/06/04 10:00:18;;;;;;;6.95;4.53;;;;;;;23.41;97.77;93506.13;5089097;28;20090;-74
2023/06/04 10:02:47;;;;;;;6.20;4.07;;;;;;;23.62;94.58;93501.38;5088494;28;20058;-74
2023/06/04 10:05:14;;;;;;;10.90;6.05;;;;;;;23.75;92.27;93505.13;5088924;28;20122;-74
2023/06/04 10:07:44;;;;;;;8.20;5.30;;;;;;;23.57;94.65;93509.34;5088991;28;20550;-74
2023/06/04 10:10:15;;;;;;;6.60;4.78;;;;;;;23.62;93.03;93503.22;5089158;28;20050;-74
2023/06/04 10:12:42;;;;;;;6.28;4.13;;;;;;;23.48;89.38;93511.03;5088902;28;20101;-74
2023/06/04 10:15:12;;;;;;;8.95;5.07;;;;;;;22.95;89.46;93497.75;5088790;28;20059;-74
2023/06/04 10:17:39;;;;;;;7.43;4.45;;;;;;;23.21;92.61;93510.56;5088647;28;20051;-74
2023/06/04 10:20:08;;;;;;;7.13;4.68;;;;;;;23.35;94.63;93508.06;5088144;28;20564;-74
2023/06/04 10:22:36;;;;;;;6.72;4.47;;;;;;;23.45;95.69;93504.50;5088929;28;20044;-74
2023/06/04 10:25:05;;;;;;;8.20;3.70;;;;;;;23.57;92.02;93508.53;5088145;28;20052;-74
2023/06/04 10:27:32;;;;;;;7.60;4.45;;;;;;;23.65;92.04;93494.78;5088598;28;20492;-74
2023/06/04 10:29:59;;;;;;;17.42;10.07;;;;;;;23.95;90.13;93499.84;5088104;28;20040;-74
2023/06/04 10:32:28;;;;;;;9.30;5.93;;;;;;;23.84;91.61;93492.13;5088089;28;20048;-73
2023/06/04 10:34:57;;;;;;;5.88;4.10;;;;;;;24.16;91.07;93492.44;5088958;28;20067;-74
2023/06/04 10:37:24;;;;;;;7.35;4.18;;;;;;;24.60;88.88;93493.03;5088500;28;20393;-74
2023/06/04 10:39:52;;;;;;;6.68;4.15;;;;;;;24.83;86.62;93487.91;5088483;28;20044;-74
2023/06/04 10:42:21;;;;;;;5.70;3.58;;;;;;;25.08;84.42;93486.59;5088275;28;20138;-74
2023/06/04 10:44:50;;;;;;;6.88;4.20;;;;;;;25.14;80.06;93478.63;5087491;28;20127;-74
2023/06/04 10:47:21;;;;;;;4.78;3.08;;;;;;;25.16;79.79;93484.34;5088013;28;20056;-74
2023/06/04 10:49:48;;;;;;;6.05;3.65;;;;;;;25.12;83.81;93478.91;5087965;28;20117;-74
2023/06/04 10:52:17;;;;;;;5.32;3.10;;;;;;;25.26;80.47;93483.38;5088218;28;20044;-74
2023/06/04 10:54:45;;;;;;;5.65;3.10;;;;;;;25.17;83.83;93488.53;5088330;28;20052;-74
2023/06/04 10:57:13;;;;;;;6.68;2.95;;;;;;;25.22;79.86;93480.53;5088178;28;20059;-74
2023/06/04 10:59:41;;;;;;;5.13;2.63;;;;;;;25.44;82.75;93465.88;5087878;28;20131;-74
2023/06/04 11:02:09;;;;;;;4.78;2.85;;;;;;;25.66;81.75;93470.44;5087295;28;20048;-74
2023/06/04 11:04:37;;;;;;;3.67;2.20;;;;;;;25.52;75.20;93472.28;5088296;28;20052;-74
2023/06/04 11:07:08;;;;;;;3.78;2.38;;;;;;;25.36;76.50;93470.00;5087609;28;20040;-74
2023/06/04 11:09:36;;;;;;;3.97;2.13;;;;;;;25.24;78.80;93473.16;5087466;28;20072;-74
2023/06/04 11:12:05;;;;;;;4.57;2.72;;;;;;;25.41;78.69;93469.13;5082184;28;20522;-75
2023/06/04 11:14:32;;;;;;;3.38;1.80;;;;;;;25.19;78.70;93470.63;5088239;28;20040;-74
2023/06/04 11:17:10;;;;;;;3.60;1.90;;;;;;;25.09;74.84;93469.75;5073259;28;20404;-76
2023/06/04 11:19:37;;;;;;;4.05;2.40;;;;;;;24.95;78.53;93461.13;5087538;28;20068;-74
2023/06/04 11:22:04;;;;;;;6.53;2.55;;;;;;;25.03;75.32;93478.81;5087790;28;20044;-74
2023/06/04 11:24:31;;;;;;;4.50;2.70;;;;;;;24.58;73.30;93481.25;5087212;28;20059;-75
2023/06/04 11:26:59;;;;;;;4.03;2.78;;;;;;;24.65;72.74;93456.16;5087482;28;20097;-74
2023/06/04 11:29:26;;;;;;;5.43;2.28;;;;;;;24.42;75.32;93469.19;5086905;28;20098;-74